sensor_id;sensor_type;location;lat;lon;timestamp;P1;durP1;ratioP1;P2;durP2;ratioP2
28844;SDS011;15976;47.938;7.758;2022-11-15T00:01:42;3.50;;;2.28;;
28844;SDS011;15976;47.938;7.758;2022-11-15T00:04:28;3.63;;;2.17;;
28844;SDS011;15976;47.938;7.758;2022-11-15T00:07:14;4.53;;;2.15;;
28844;SDS011;15976;47.938;7.758;2022-11-15T00:10:19;3.25;;;2.13;;
28844;SDS011;15976;47.938;7.758;2022-11-15T00:13:12;4.47;;;2.15;;
28844;SDS011;15976;47.938;7.758;2022-11-15T00:15:58;4.00;;;2.20;;
28844;SDS011;15976;47.938;7.758;2022-11-15T00:18:45;3.67;;;2.25;;
28844;SDS011;15976;47.938;7.758;2022-11-15T00:21:34;2.92;;;2.05;;
28844;SDS011;15976;47.938;7.758;2022-11-15T00:24:20;3.97;;;2.50;;
28844;SDS011;15976;47.938;7.758;2022-11-15T00:27:05;4.07;;;2.35;;
28844;SDS011;15976;47.938;7.758;2022-11-15T00:29:52;4.72;;;2.53;;
28844;SDS011;15976;47.938;7.758;2022-11-15T00:32:37;3.42;;;2.35;;
28844;SDS011;15976;47.938;7.758;2022-11-15T00:35:23;2.85;;;2.22;;
28844;SDS011;15976;47.938;7.758;2022-11-15T00:38:08;4.28;;;2.58;;
28844;SDS011;15976;47.938;7.758;2022-11-15T00:40:54;3.83;;;2.60;;
28844;SDS011;15976;47.938;7.758;2022-11-15T00:43:40;6.43;;;2.40;;
28844;SDS011;15976;47.938;7.758;2022-11-15T00:46:28;3.40;;;2.22;;
28844;SDS011;15976;47.938;7.758;2022-11-15T00:49:14;11.05;;;2.70;;
28844;SDS011;15976;47.938;7.758;2022-11-15T00:51:59;4.30;;;2.47;;
28844;SDS011;15976;47.938;7.758;2022-11-15T00:54:45;4.88;;;2.22;;
28844;SDS011;15976;47.938;7.758;2022-11-15T00:57:31;3.20;;;2.03;;
28844;SDS011;15976;47.938;7.758;2022-11-15T01:00:16;3.63;;;2.13;;
28844;SDS011;15976;47.938;7.758;2022-11-15T01:03:02;6.63;;;2.60;;
28844;SDS011;15976;47.938;7.758;2022-11-15T01:05:47;4.43;;;2.85;;
28844;SDS011;15976;47.938;7.758;2022-11-15T01:08:33;4.70;;;2.78;;
28844;SDS011;15976;47.938;7.758;2022-11-15T01:11:19;4.40;;;2.40;;
28844;SDS011;15976;47.938;7.758;2022-11-15T01:14:04;3.97;;;2.10;;
28844;SDS011;15976;47.938;7.758;2022-11-15T01:16:50;1.92;;;1.40;;
28844;SDS011;15976;47.938;7.758;2022-11-15T01:19:35;3.15;;;1.42;;
28844;SDS011;15976;47.938;7.758;2022-11-15T01:22:21;1.42;;;1.30;;
28844;SDS011;15976;47.938;7.758;2022-11-15T01:25:07;1.50;;;0.95;;
28844;SDS011;15976;47.938;7.758;2022-11-15T01:27:52;1.88;;;1.35;;
28844;SDS011;15976;47.938;7.758;2022-11-15T01:30:38;2.15;;;1.10;;
28844;SDS011;15976;47.938;7.758;2022-11-15T01:33:23;1.75;;;1.30;;
28844;SDS011;15976;47.938;7.758;2022-11-15T01:36:11;1.83;;;1.20;;
28844;SDS011;15976;47.938;7.758;2022-11-15T01:41:48;1.17;;;1.08;;
28844;SDS011;15976;47.938;7.758;2022-11-15T01:47:20;1.45;;;1.02;;
28844;SDS011;15976;47.938;7.758;2022-11-15T01:50:10;1.60;;;1.10;;
28844;SDS011;15976;47.938;7.758;2022-11-15T01:53:00;2.63;;;1.25;;
28844;SDS011;15976;47.938;7.758;2022-11-15T01:55:46;1.23;;;1.00;;
28844;SDS011;15976;47.938;7.758;2022-11-15T01:58:32;1.42;;;1.20;;
28844;SDS011;15976;47.938;7.758;2022-11-15T02:01:18;2.28;;;1.20;;
28844;SDS011;15976;47.938;7.758;2022-11-15T02:04:16;1.30;;;1.00;;
28844;SDS011;15976;47.938;7.758;2022-11-15T02:07:06;1.67;;;1.13;;
28844;SDS011;15976;47.938;7.758;2022-11-15T02:09:55;3.38;;;1.30;;
28844;SDS011;15976;47.938;7.758;2022-11-15T02:13:03;2.58;;;1.50;;
28844;SDS011;15976;47.938;7.758;2022-11-15T02:16:04;1.50;;;1.08;;
28844;SDS011;15976;47.938;7.758;2022-11-15T02:31:45;5.45;;;1.45;;
28844;SDS011;15976;47.938;7.758;2022-11-15T02:34:54;1.73;;;1.20;;
28844;SDS011;15976;47.938;7.758;2022-11-15T02:37:58;1.83;;;1.20;;
28844;SDS011;15976;47.938;7.758;2022-11-15T02:40:59;4.15;;;1.48;;
28844;SDS011;15976;47.938;7.758;2022-11-15T02:46:51;1.50;;;1.40;;
28844;SDS011;15976;47.938;7.758;2022-11-15T02:49:57;3.25;;;1.60;;
28844;SDS011;15976;47.938;7.758;2022-11-15T02:52:46;2.33;;;1.50;;
28844;SDS011;15976;47.938;7.758;2022-11-15T02:55:37;1.95;;;1.33;;
28844;SDS011;15976;47.938;7.758;2022-11-15T03:01:15;1.27;;;0.93;;
28844;SDS011;15976;47.938;7.758;2022-11-15T03:16:51;1.02;;;1.00;;
28844;SDS011;15976;47.938;7.758;2022-11-15T03:19:48;2.50;;;1.10;;
28844;SDS011;15976;47.938;7.758;2022-11-15T03:22:37;3.85;;;1.13;;
28844;SDS011;15976;47.938;7.758;2022-11-15T03:25:27;4.47;;;1.60;;
28844;SDS011;15976;47.938;7.758;2022-11-15T03:28:18;3.03;;;1.42;;
28844;SDS011;15976;47.938;7.758;2022-11-15T03:31:10;2.80;;;1.17;;
28844;SDS011;15976;47.938;7.758;2022-11-15T03:34:22;2.05;;;1.25;;
28844;SDS011;15976;47.938;7.758;2022-11-15T03:37:10;2.78;;;1.52;;
28844;SDS011;15976;47.938;7.758;2022-11-15T03:40:00;4.28;;;2.30;;
28844;SDS011;15976;47.938;7.758;2022-11-15T03:42:48;3.15;;;2.40;;
28844;SDS011;15976;47.938;7.758;2022-11-15T03:45:47;3.38;;;2.20;;
28844;SDS011;15976;47.938;7.758;2022-11-15T03:48:47;2.92;;;1.90;;
28844;SDS011;15976;47.938;7.758;2022-11-15T03:55:48;3.80;;;2.20;;
28844;SDS011;15976;47.938;7.758;2022-11-15T03:58:34;3.65;;;2.08;;
28844;SDS011;15976;47.938;7.758;2022-11-15T04:01:20;2.72;;;2.22;;
28844;SDS011;15976;47.938;7.758;2022-11-15T04:04:05;4.13;;;2.50;;
28844;SDS011;15976;47.938;7.758;2022-11-15T04:06:51;5.43;;;2.42;;
28844;SDS011;15976;47.938;7.758;2022-11-15T04:09:37;3.80;;;2.10;;
28844;SDS011;15976;47.938;7.758;2022-11-15T04:12:42;3.42;;;2.40;;
28844;SDS011;15976;47.938;7.758;2022-11-15T04:15:31;4.20;;;2.47;;
28844;SDS011;15976;47.938;7.758;2022-11-15T04:18:16;3.53;;;2.10;;
28844;SDS011;15976;47.938;7.758;2022-11-15T04:21:02;2.65;;;2.20;;
28844;SDS011;15976;47.938;7.758;2022-11-15T04:24:06;5.68;;;2.30;;
28844;SDS011;15976;47.938;7.758;2022-11-15T04:26:57;2.78;;;2.20;;
28844;SDS011;15976;47.938;7.758;2022-11-15T04:29:43;4.35;;;2.63;;
28844;SDS011;15976;47.938;7.758;2022-11-15T04:32:29;3.40;;;2.35;;
28844;SDS011;15976;47.938;7.758;2022-11-15T04:35:14;3.47;;;2.75;;
28844;SDS011;15976;47.938;7.758;2022-11-15T04:38:00;4.32;;;2.90;;
28844;SDS011;15976;47.938;7.758;2022-11-15T04:40:49;4.95;;;2.60;;
28844;SDS011;15976;47.938;7.758;2022-11-15T04:43:35;4.95;;;2.78;;
28844;SDS011;15976;47.938;7.758;2022-11-15T04:46:20;4.50;;;2.58;;
28844;SDS011;15976;47.938;7.758;2022-11-15T04:49:07;7.13;;;3.00;;
28844;SDS011;15976;47.938;7.758;2022-11-15T04:51:52;8.07;;;2.90;;
28844;SDS011;15976;47.938;7.758;2022-11-15T04:54:38;5.07;;;3.20;;
28844;SDS011;15976;47.938;7.758;2022-11-15T04:57:23;3.78;;;2.65;;
28844;SDS011;15976;47.938;7.758;2022-11-15T05:00:10;3.75;;;2.90;;
28844;SDS011;15976;47.938;7.758;2022-11-15T05:02:58;5.60;;;3.40;;
28844;SDS011;15976;47.938;7.758;2022-11-15T05:06:02;5.03;;;2.60;;
28844;SDS011;15976;47.938;7.758;2022-11-15T05:08:47;5.15;;;2.60;;
28844;SDS011;15976;47.938;7.758;2022-11-15T05:11:33;6.72;;;3.13;;
28844;SDS011;15976;47.938;7.758;2022-11-15T05:14:18;8.57;;;3.03;;
28844;SDS011;15976;47.938;7.758;2022-11-15T05:17:04;5.55;;;2.90;;
28844;SDS011;15976;47.938;7.758;2022-11-15T05:19:50;6.13;;;2.78;;
28844;SDS011;15976;47.938;7.758;2022-11-15T05:22:36;4.60;;;2.60;;
28844;SDS011;15976;47.938;7.758;2022-11-15T05:25:22;5.72;;;2.78;;
28844;SDS011;15976;47.938;7.758;2022-11-15T05:28:08;4.30;;;2.80;;
28844;SDS011;15976;47.938;7.758;2022-11-15T05:30:59;4.45;;;3.33;;
28844;SDS011;15976;47.938;7.758;2022-11-15T05:33:56;4.50;;;2.92;;
28844;SDS011;15976;47.938;7.758;2022-11-15T05:36:43;3.83;;;2.47;;
28844;SDS011;15976;47.938;7.758;2022-11-15T05:39:30;3.95;;;3.05;;
28844;SDS011;15976;47.938;7.758;2022-11-15T05:42:16;5.05;;;3.00;;
28844;SDS011;15976;47.938;7.758;2022-11-15T05:45:02;5.10;;;2.70;;
28844;SDS011;15976;47.938;7.758;2022-11-15T05:47:50;5.30;;;3.33;;
28844;SDS011;15976;47.938;7.758;2022-11-15T05:50:38;9.57;;;3.97;;
28844;SDS011;15976;47.938;7.758;2022-11-15T05:53:26;5.65;;;3.20;;
28844;SDS011;15976;47.938;7.758;2022-11-15T05:56:12;4.45;;;2.90;;
28844;SDS011;15976;47.938;7.758;2022-11-15T05:58:58;7.35;;;2.70;;
28844;SDS011;15976;47.938;7.758;2022-11-15T06:01:44;3.22;;;2.58;;
28844;SDS011;15976;47.938;7.758;2022-11-15T06:04:31;5.68;;;3.08;;
28844;SDS011;15976;47.938;7.758;2022-11-15T06:07:16;6.00;;;3.78;;
28844;SDS011;15976;47.938;7.758;2022-11-15T06:10:02;8.18;;;4.20;;
28844;SDS011;15976;47.938;7.758;2022-11-15T06:12:55;7.65;;;4.13;;
28844;SDS011;15976;47.938;7.758;2022-11-15T06:15:44;8.50;;;4.00;;
28844;SDS011;15976;47.938;7.758;2022-11-15T06:18:31;7.95;;;4.22;;
28844;SDS011;15976;47.938;7.758;2022-11-15T06:21:18;7.22;;;4.13;;
28844;SDS011;15976;47.938;7.758;2022-11-15T06:24:05;4.55;;;3.75;;
28844;SDS011;15976;47.938;7.758;2022-11-15T06:26:51;6.32;;;3.88;;
28844;SDS011;15976;47.938;7.758;2022-11-15T06:29:37;7.38;;;4.22;;
28844;SDS011;15976;47.938;7.758;2022-11-15T06:32:23;8.18;;;3.17;;
28844;SDS011;15976;47.938;7.758;2022-11-15T06:35:08;6.38;;;3.42;;
28844;SDS011;15976;47.938;7.758;2022-11-15T06:37:54;5.50;;;3.58;;
28844;SDS011;15976;47.938;7.758;2022-11-15T06:40:40;5.10;;;3.03;;
28844;SDS011;15976;47.938;7.758;2022-11-15T06:43:26;4.95;;;3.28;;
28844;SDS011;15976;47.938;7.758;2022-11-15T06:46:11;5.70;;;3.42;;
28844;SDS011;15976;47.938;7.758;2022-11-15T06:48:57;6.30;;;3.40;;
28844;SDS011;15976;47.938;7.758;2022-11-15T06:51:43;5.90;;;2.83;;
28844;SDS011;15976;47.938;7.758;2022-11-15T06:54:28;5.15;;;2.40;;
28844;SDS011;15976;47.938;7.758;2022-11-15T06:57:14;5.05;;;2.70;;
28844;SDS011;15976;47.938;7.758;2022-11-15T06:59:59;2.65;;;1.90;;
28844;SDS011;15976;47.938;7.758;2022-11-15T07:02:45;4.88;;;2.88;;
28844;SDS011;15976;47.938;7.758;2022-11-15T07:05:31;5.70;;;2.70;;
28844;SDS011;15976;47.938;7.758;2022-11-15T07:08:17;3.50;;;2.65;;
28844;SDS011;15976;47.938;7.758;2022-11-15T07:11:03;4.57;;;2.63;;
28844;SDS011;15976;47.938;7.758;2022-11-15T07:13:50;4.70;;;3.45;;
28844;SDS011;15976;47.938;7.758;2022-11-15T07:16:36;8.50;;;3.95;;
28844;SDS011;15976;47.938;7.758;2022-11-15T07:19:22;6.28;;;3.78;;
28844;SDS011;15976;47.938;7.758;2022-11-15T07:22:07;9.95;;;3.70;;
28844;SDS011;15976;47.938;7.758;2022-11-15T07:24:53;6.30;;;4.43;;
28844;SDS011;15976;47.938;7.758;2022-11-15T07:27:39;13.75;;;6.00;;
28844;SDS011;15976;47.938;7.758;2022-11-15T07:30:25;7.10;;;4.43;;
28844;SDS011;15976;47.938;7.758;2022-11-15T07:33:10;10.20;;;5.35;;
28844;SDS011;15976;47.938;7.758;2022-11-15T07:36:00;18.90;;;9.63;;
28844;SDS011;15976;47.938;7.758;2022-11-15T07:38:46;22.95;;;11.90;;
28844;SDS011;15976;47.938;7.758;2022-11-15T07:41:32;25.08;;;12.70;;
28844;SDS011;15976;47.938;7.758;2022-11-15T07:44:17;24.27;;;14.02;;
28844;SDS011;15976;47.938;7.758;2022-11-15T07:47:03;27.08;;;14.40;;
28844;SDS011;15976;47.938;7.758;2022-11-15T07:49:49;18.45;;;10.45;;
28844;SDS011;15976;47.938;7.758;2022-11-15T07:52:34;16.20;;;8.60;;
28844;SDS011;15976;47.938;7.758;2022-11-15T07:55:20;13.75;;;7.10;;
28844;SDS011;15976;47.938;7.758;2022-11-15T07:58:07;11.55;;;7.05;;
28844;SDS011;15976;47.938;7.758;2022-11-15T08:00:56;14.88;;;6.90;;
28844;SDS011;15976;47.938;7.758;2022-11-15T08:03:42;8.25;;;5.57;;
28844;SDS011;15976;47.938;7.758;2022-11-15T08:06:27;7.22;;;5.32;;
28844;SDS011;15976;47.938;7.758;2022-11-15T08:09:13;8.20;;;5.25;;
28844;SDS011;15976;47.938;7.758;2022-11-15T08:11:59;7.63;;;5.30;;
28844;SDS011;15976;47.938;7.758;2022-11-15T08:14:45;9.63;;;6.60;;
28844;SDS011;15976;47.938;7.758;2022-11-15T08:17:31;15.15;;;9.48;;
28844;SDS011;15976;47.938;7.758;2022-11-15T08:20:17;19.92;;;11.40;;
28844;SDS011;15976;47.938;7.758;2022-11-15T08:23:04;20.77;;;11.20;;
28844;SDS011;15976;47.938;7.758;2022-11-15T08:25:50;19.95;;;10.52;;
28844;SDS011;15976;47.938;7.758;2022-11-15T08:28:36;19.25;;;10.30;;
28844;SDS011;15976;47.938;7.758;2022-11-15T08:31:22;30.05;;;16.42;;
28844;SDS011;15976;47.938;7.758;2022-11-15T08:34:08;25.02;;;13.40;;
28844;SDS011;15976;47.938;7.758;2022-11-15T08:36:53;17.25;;;10.57;;
28844;SDS011;15976;47.938;7.758;2022-11-15T08:39:39;16.50;;;9.18;;
28844;SDS011;15976;47.938;7.758;2022-11-15T08:42:24;17.63;;;10.02;;
28844;SDS011;15976;47.938;7.758;2022-11-15T08:45:10;27.42;;;13.73;;
28844;SDS011;15976;47.938;7.758;2022-11-15T08:47:56;16.65;;;10.18;;
28844;SDS011;15976;47.938;7.758;2022-11-15T08:50:41;20.65;;;11.93;;
28844;SDS011;15976;47.938;7.758;2022-11-15T08:53:28;30.17;;;15.05;;
28844;SDS011;15976;47.938;7.758;2022-11-15T08:56:14;14.32;;;8.20;;
28844;SDS011;15976;47.938;7.758;2022-11-15T08:59:00;11.82;;;6.47;;
28844;SDS011;15976;47.938;7.758;2022-11-15T09:01:45;11.65;;;6.80;;
28844;SDS011;15976;47.938;7.758;2022-11-15T09:04:31;10.68;;;6.20;;
28844;SDS011;15976;47.938;7.758;2022-11-15T09:07:16;8.77;;;4.88;;
28844;SDS011;15976;47.938;7.758;2022-11-15T09:10:02;9.25;;;5.43;;
28844;SDS011;15976;47.938;7.758;2022-11-15T09:12:48;9.13;;;6.10;;
28844;SDS011;15976;47.938;7.758;2022-11-15T09:15:34;8.68;;;5.28;;
28844;SDS011;15976;47.938;7.758;2022-11-15T09:18:19;6.70;;;4.45;;
28844;SDS011;15976;47.938;7.758;2022-11-15T09:21:08;9.68;;;3.88;;
28844;SDS011;15976;47.938;7.758;2022-11-15T09:23:54;8.23;;;4.10;;
28844;SDS011;15976;47.938;7.758;2022-11-15T09:26:39;7.22;;;3.70;;
28844;SDS011;15976;47.938;7.758;2022-11-15T09:29:25;6.18;;;3.83;;
28844;SDS011;15976;47.938;7.758;2022-11-15T09:32:11;16.08;;;8.73;;
28844;SDS011;15976;47.938;7.758;2022-11-15T09:34:57;14.00;;;8.80;;
28844;SDS011;15976;47.938;7.758;2022-11-15T09:37:42;11.73;;;6.50;;
28844;SDS011;15976;47.938;7.758;2022-11-15T09:40:29;12.57;;;8.40;;
28844;SDS011;15976;47.938;7.758;2022-11-15T09:43:23;20.08;;;10.52;;
28844;SDS011;15976;47.938;7.758;2022-11-15T09:49:15;8.38;;;5.50;;
28844;SDS011;15976;47.938;7.758;2022-11-15T09:52:02;9.52;;;6.38;;
28844;SDS011;15976;47.938;7.758;2022-11-15T09:54:47;8.23;;;5.00;;
28844;SDS011;15976;47.938;7.758;2022-11-15T09:57:23;13.20;;;8.55;;
28844;SDS011;15976;47.938;7.758;2022-11-15T10:02:53;16.20;;;8.43;;
28844;SDS011;15976;47.938;7.758;2022-11-15T10:05:37;15.40;;;8.88;;
28844;SDS011;15976;47.938;7.758;2022-11-15T10:11:16;18.45;;;10.32;;
28844;SDS011;15976;47.938;7.758;2022-11-15T10:14:22;12.77;;;7.95;;
28844;SDS011;15976;47.938;7.758;2022-11-15T10:16:55;12.98;;;7.80;;
28844;SDS011;15976;47.938;7.758;2022-11-15T10:25:32;57.50;;;28.35;;
28844;SDS011;15976;47.938;7.758;2022-11-15T10:28:01;37.42;;;18.63;;
28844;SDS011;15976;47.938;7.758;2022-11-15T10:30:41;27.20;;;14.13;;
28844;SDS011;15976;47.938;7.758;2022-11-15T10:33:56;18.70;;;11.20;;
28844;SDS011;15976;47.938;7.758;2022-11-15T10:46:36;20.73;;;10.10;;
28844;SDS011;15976;47.938;7.758;2022-11-15T10:51:45;9.60;;;6.15;;
28844;SDS011;15976;47.938;7.758;2022-11-15T10:54:14;10.27;;;6.45;;
28844;SDS011;15976;47.938;7.758;2022-11-15T10:57:18;11.75;;;5.90;;
28844;SDS011;15976;47.938;7.758;2022-11-15T10:59:49;10.65;;;6.38;;
28844;SDS011;15976;47.938;7.758;2022-11-15T11:02:28;9.02;;;5.88;;
28844;SDS011;15976;47.938;7.758;2022-11-15T11:04:59;11.07;;;6.03;;
28844;SDS011;15976;47.938;7.758;2022-11-15T11:07:30;12.95;;;5.90;;
28844;SDS011;15976;47.938;7.758;2022-11-15T11:10:03;10.65;;;6.07;;
28844;SDS011;15976;47.938;7.758;2022-11-15T11:13:14;9.63;;;6.32;;
28844;SDS011;15976;47.938;7.758;2022-11-15T11:22:16;13.30;;;6.85;;
28844;SDS011;15976;47.938;7.758;2022-11-15T11:27:43;6.88;;;4.03;;
28844;SDS011;15976;47.938;7.758;2022-11-15T11:35:49;6.07;;;3.72;;
28844;SDS011;15976;47.938;7.758;2022-11-15T11:49:45;7.15;;;5.05;;
28844;SDS011;15976;47.938;7.758;2022-11-15T11:52:18;6.18;;;4.30;;
28844;SDS011;15976;47.938;7.758;2022-11-15T11:57:20;7.05;;;3.72;;
28844;SDS011;15976;47.938;7.758;2022-11-15T12:02:44;8.82;;;4.28;;
28844;SDS011;15976;47.938;7.758;2022-11-15T12:05:43;7.25;;;4.20;;
28844;SDS011;15976;47.938;7.758;2022-11-15T12:08:24;7.97;;;4.25;;
28844;SDS011;15976;47.938;7.758;2022-11-15T12:11:47;7.30;;;4.20;;
28844;SDS011;15976;47.938;7.758;2022-11-15T12:14:08;7.93;;;5.82;;
28844;SDS011;15976;47.938;7.758;2022-11-15T12:16:39;8.45;;;3.95;;
28844;SDS011;15976;47.938;7.758;2022-11-15T12:19:08;8.43;;;3.80;;
28844;SDS011;15976;47.938;7.758;2022-11-15T12:24:12;8.05;;;3.97;;
28844;SDS011;15976;47.938;7.758;2022-11-15T12:27:01;6.43;;;4.45;;
28844;SDS011;15976;47.938;7.758;2022-11-15T12:32:04;11.50;;;7.03;;
28844;SDS011;15976;47.938;7.758;2022-11-15T12:34:40;8.52;;;4.47;;
28844;SDS011;15976;47.938;7.758;2022-11-15T12:40:27;13.40;;;4.60;;
28844;SDS011;15976;47.938;7.758;2022-11-15T12:45:33;7.60;;;4.60;;
28844;SDS011;15976;47.938;7.758;2022-11-15T13:06:46;7.22;;;5.28;;
28844;SDS011;15976;47.938;7.758;2022-11-15T13:12:02;10.95;;;5.85;;
28844;SDS011;15976;47.938;7.758;2022-11-15T13:17:11;11.02;;;5.57;;
28844;SDS011;15976;47.938;7.758;2022-11-15T13:19:48;7.43;;;5.40;;
28844;SDS011;15976;47.938;7.758;2022-11-15T13:22:18;8.35;;;5.93;;
28844;SDS011;15976;47.938;7.758;2022-11-15T13:27:56;10.70;;;6.38;;
28844;SDS011;15976;47.938;7.758;2022-11-15T13:30:31;8.93;;;5.90;;
28844;SDS011;15976;47.938;7.758;2022-11-15T13:33:00;8.98;;;6.43;;
28844;SDS011;15976;47.938;7.758;2022-11-15T13:35:45;14.00;;;8.50;;
28844;SDS011;15976;47.938;7.758;2022-11-15T13:38:34;13.82;;;8.23;;
28844;SDS011;15976;47.938;7.758;2022-11-15T13:41:11;10.93;;;6.45;;
28844;SDS011;15976;47.938;7.758;2022-11-15T13:43:40;11.30;;;7.18;;
28844;SDS011;15976;47.938;7.758;2022-11-15T13:48:40;15.48;;;10.43;;
28844;SDS011;15976;47.938;7.758;2022-11-15T13:51:32;15.93;;;9.25;;
28844;SDS011;15976;47.938;7.758;2022-11-15T13:54:06;9.68;;;7.00;;
28844;SDS011;15976;47.938;7.758;2022-11-15T13:56:34;12.18;;;6.97;;
28844;SDS011;15976;47.938;7.758;2022-11-15T13:59:09;15.80;;;7.78;;
28844;SDS011;15976;47.938;7.758;2022-11-15T14:01:41;15.98;;;8.90;;
28844;SDS011;15976;47.938;7.758;2022-11-15T14:04:11;13.82;;;7.00;;
28844;SDS011;15976;47.938;7.758;2022-11-15T14:06:46;14.95;;;7.40;;
28844;SDS011;15976;47.938;7.758;2022-11-15T14:12:02;11.90;;;7.00;;
28844;SDS011;15976;47.938;7.758;2022-11-15T14:14:48;16.17;;;7.80;;
28844;SDS011;15976;47.938;7.758;2022-11-15T14:17:32;14.75;;;7.57;;
28844;SDS011;15976;47.938;7.758;2022-11-15T14:20:18;12.90;;;6.32;;
28844;SDS011;15976;47.938;7.758;2022-11-15T14:22:52;14.15;;;7.10;;
28844;SDS011;15976;47.938;7.758;2022-11-15T14:25:21;8.05;;;4.97;;
28844;SDS011;15976;47.938;7.758;2022-11-15T14:30:40;7.85;;;4.45;;
28844;SDS011;15976;47.938;7.758;2022-11-15T14:33:19;7.40;;;4.85;;
28844;SDS011;15976;47.938;7.758;2022-11-15T14:35:56;10.63;;;4.82;;
28844;SDS011;15976;47.938;7.758;2022-11-15T14:38:25;9.02;;;4.30;;
28844;SDS011;15976;47.938;7.758;2022-11-15T14:40:52;9.00;;;5.05;;
28844;SDS011;15976;47.938;7.758;2022-11-15T14:43:21;6.20;;;4.63;;
28844;SDS011;15976;47.938;7.758;2022-11-15T14:45:48;10.95;;;6.75;;
28844;SDS011;15976;47.938;7.758;2022-11-15T14:48:15;7.97;;;5.47;;
28844;SDS011;15976;47.938;7.758;2022-11-15T14:50:44;9.98;;;5.32;;
28844;SDS011;15976;47.938;7.758;2022-11-15T14:53:12;8.93;;;5.40;;
28844;SDS011;15976;47.938;7.758;2022-11-15T14:55:41;10.77;;;5.82;;
28844;SDS011;15976;47.938;7.758;2022-11-15T14:58:08;11.00;;;5.22;;
28844;SDS011;15976;47.938;7.758;2022-11-15T15:00:36;11.50;;;5.47;;
28844;SDS011;15976;47.938;7.758;2022-11-15T15:03:05;11.57;;;5.70;;
28844;SDS011;15976;47.938;7.758;2022-11-15T15:05:36;6.30;;;4.60;;
28844;SDS011;15976;47.938;7.758;2022-11-15T15:08:08;11.18;;;6.13;;
28844;SDS011;15976;47.938;7.758;2022-11-15T15:10:37;11.35;;;7.22;;
28844;SDS011;15976;47.938;7.758;2022-11-15T15:13:20;15.23;;;7.07;;
28844;SDS011;15976;47.938;7.758;2022-11-15T15:15:49;9.27;;;6.20;;
28844;SDS011;15976;47.938;7.758;2022-11-15T15:18:17;15.85;;;7.50;;
28844;SDS011;15976;47.938;7.758;2022-11-15T15:20:57;14.02;;;8.65;;
28844;SDS011;15976;47.938;7.758;2022-11-15T15:23:33;21.65;;;11.10;;
28844;SDS011;15976;47.938;7.758;2022-11-15T15:26:01;9.35;;;5.45;;
28844;SDS011;15976;47.938;7.758;2022-11-15T15:28:29;10.80;;;5.95;;
28844;SDS011;15976;47.938;7.758;2022-11-15T15:31:00;19.95;;;9.95;;
28844;SDS011;15976;47.938;7.758;2022-11-15T15:33:28;14.50;;;7.78;;
28844;SDS011;15976;47.938;7.758;2022-11-15T15:35:55;9.68;;;4.90;;
28844;SDS011;15976;47.938;7.758;2022-11-15T15:38:22;11.45;;;7.65;;
28844;SDS011;15976;47.938;7.758;2022-11-15T15:40:49;12.15;;;6.45;;
28844;SDS011;15976;47.938;7.758;2022-11-15T15:43:17;12.43;;;6.20;;
28844;SDS011;15976;47.938;7.758;2022-11-15T15:45:44;26.92;;;13.25;;
28844;SDS011;15976;47.938;7.758;2022-11-15T15:48:12;11.90;;;5.50;;
28844;SDS011;15976;47.938;7.758;2022-11-15T15:50:42;12.25;;;7.30;;
28844;SDS011;15976;47.938;7.758;2022-11-15T15:53:10;9.95;;;6.18;;
28844;SDS011;15976;47.938;7.758;2022-11-15T15:55:38;14.50;;;7.97;;
28844;SDS011;15976;47.938;7.758;2022-11-15T15:58:05;11.90;;;7.80;;
28844;SDS011;15976;47.938;7.758;2022-11-15T16:00:34;13.80;;;5.78;;
28844;SDS011;15976;47.938;7.758;2022-11-15T16:03:02;11.52;;;5.18;;
28844;SDS011;15976;47.938;7.758;2022-11-15T16:05:29;11.40;;;5.82;;
28844;SDS011;15976;47.938;7.758;2022-11-15T16:07:56;13.95;;;7.35;;
28844;SDS011;15976;47.938;7.758;2022-11-15T16:10:24;11.63;;;6.95;;
28844;SDS011;15976;47.938;7.758;2022-11-15T16:12:53;10.10;;;5.95;;
28844;SDS011;15976;47.938;7.758;2022-11-15T16:15:23;13.68;;;6.03;;
28844;SDS011;15976;47.938;7.758;2022-11-15T16:17:52;11.13;;;5.32;;
28844;SDS011;15976;47.938;7.758;2022-11-15T16:23:09;7.78;;;5.80;;
28844;SDS011;15976;47.938;7.758;2022-11-15T16:29:07;19.02;;;11.55;;
28844;SDS011;15976;47.938;7.758;2022-11-15T16:31:36;25.23;;;14.82;;
28844;SDS011;15976;47.938;7.758;2022-11-15T16:34:03;25.67;;;13.90;;
28844;SDS011;15976;47.938;7.758;2022-11-15T16:36:31;23.30;;;12.50;;
28844;SDS011;15976;47.938;7.758;2022-11-15T16:39:00;16.92;;;8.15;;
28844;SDS011;15976;47.938;7.758;2022-11-15T16:41:31;10.48;;;6.50;;
28844;SDS011;15976;47.938;7.758;2022-11-15T16:43:58;11.65;;;5.20;;
28844;SDS011;15976;47.938;7.758;2022-11-15T16:46:26;12.75;;;7.45;;
28844;SDS011;15976;47.938;7.758;2022-11-15T16:48:55;11.25;;;5.13;;
28844;SDS011;15976;47.938;7.758;2022-11-15T16:51:22;7.18;;;4.43;;
28844;SDS011;15976;47.938;7.758;2022-11-15T16:53:49;13.48;;;8.23;;
28844;SDS011;15976;47.938;7.758;2022-11-15T16:56:28;15.38;;;7.88;;
28844;SDS011;15976;47.938;7.758;2022-11-15T16:58:57;24.27;;;12.35;;
28844;SDS011;15976;47.938;7.758;2022-11-15T17:01:37;11.43;;;7.03;;
28844;SDS011;15976;47.938;7.758;2022-11-15T17:04:12;10.95;;;5.68;;
28844;SDS011;15976;47.938;7.758;2022-11-15T17:06:40;15.95;;;8.80;;
28844;SDS011;15976;47.938;7.758;2022-11-15T17:09:16;15.07;;;7.47;;
28844;SDS011;15976;47.938;7.758;2022-11-15T17:11:47;10.63;;;6.65;;
28844;SDS011;15976;47.938;7.758;2022-11-15T17:14:14;12.77;;;6.70;;
28844;SDS011;15976;47.938;7.758;2022-11-15T17:16:42;7.55;;;4.63;;
28844;SDS011;15976;47.938;7.758;2022-11-15T17:19:13;9.65;;;5.78;;
28844;SDS011;15976;47.938;7.758;2022-11-15T17:21:42;8.50;;;5.40;;
28844;SDS011;15976;47.938;7.758;2022-11-15T17:24:09;9.82;;;6.30;;
28844;SDS011;15976;47.938;7.758;2022-11-15T17:26:37;17.02;;;11.15;;
28844;SDS011;15976;47.938;7.758;2022-11-15T17:29:06;11.05;;;6.78;;
28844;SDS011;15976;47.938;7.758;2022-11-15T17:31:34;15.85;;;8.43;;
28844;SDS011;15976;47.938;7.758;2022-11-15T17:34:02;14.85;;;9.23;;
28844;SDS011;15976;47.938;7.758;2022-11-15T17:36:31;15.50;;;10.00;;
28844;SDS011;15976;47.938;7.758;2022-11-15T17:38:58;16.23;;;9.80;;
28844;SDS011;15976;47.938;7.758;2022-11-15T17:41:26;14.60;;;9.73;;
28844;SDS011;15976;47.938;7.758;2022-11-15T17:43:55;16.20;;;11.38;;
28844;SDS011;15976;47.938;7.758;2022-11-15T17:46:23;23.92;;;17.05;;
28844;SDS011;15976;47.938;7.758;2022-11-15T17:48:51;22.80;;;12.95;;
28844;SDS011;15976;47.938;7.758;2022-11-15T17:51:18;30.38;;;15.43;;
28844;SDS011;15976;47.938;7.758;2022-11-15T17:53:46;25.45;;;14.25;;
28844;SDS011;15976;47.938;7.758;2022-11-15T17:56:15;106.57;;;44.92;;
28844;SDS011;15976;47.938;7.758;2022-11-15T17:58:48;29.50;;;16.02;;
28844;SDS011;15976;47.938;7.758;2022-11-15T18:01:21;14.23;;;8.48;;
28844;SDS011;15976;47.938;7.758;2022-11-15T18:03:53;13.05;;;7.60;;
28844;SDS011;15976;47.938;7.758;2022-11-15T18:06:22;10.77;;;6.82;;
28844;SDS011;15976;47.938;7.758;2022-11-15T18:08:50;11.38;;;7.45;;
28844;SDS011;15976;47.938;7.758;2022-11-15T18:11:19;11.40;;;6.10;;
28844;SDS011;15976;47.938;7.758;2022-11-15T18:13:55;10.82;;;7.13;;
28844;SDS011;15976;47.938;7.758;2022-11-15T18:16:24;6.20;;;4.53;;
28844;SDS011;15976;47.938;7.758;2022-11-15T18:18:53;9.30;;;4.93;;
28844;SDS011;15976;47.938;7.758;2022-11-15T18:21:27;5.57;;;4.75;;
28844;SDS011;15976;47.938;7.758;2022-11-15T18:23:56;7.82;;;4.72;;
28844;SDS011;15976;47.938;7.758;2022-11-15T18:26:26;8.35;;;5.22;;
28844;SDS011;15976;47.938;7.758;2022-11-15T18:29:00;7.20;;;4.60;;
28844;SDS011;15976;47.938;7.758;2022-11-15T18:31:29;8.25;;;5.35;;
28844;SDS011;15976;47.938;7.758;2022-11-15T18:33:57;8.90;;;4.82;;
28844;SDS011;15976;47.938;7.758;2022-11-15T18:36:26;6.55;;;4.57;;